Varney, Kentucky
Current Conditions -  °F | °C
As of 11:15 PM on Monday 22 Dec 2014 (Local Time) from KPBX Reporting Station
Clear Clear  
Wind Chill: 50°   Ceiling: Unl
Heat Index: 50°   Visibility: 10mi
Dew Point: 39°   Wind: 7mph
Humidity: 66%   Direction: 140°SE
Pressure: 29.81"   Gusts: NA
Location:  37.64°N, 82.49°W
Report Text: KPBX 230415Z AUTO 14006KT 10SM CLR 10/04 A2981 RMK AO2 T01020040
Loading
Personal Weather Stations






























Interactive Weather Map New forecast layout! Learn more

10-Day Weather Forecast

Advertisements
Track Severe Weather on mobile